createdAt,value
2019-03-03T00:01:12.716Z,13.40
2019-03-03T00:03:40.073Z,13.40
2019-03-03T00:06:07.351Z,13.60
2019-03-03T00:08:35.228Z,13.30
2019-03-03T00:11:02.667Z,13.40
2019-03-03T00:13:29.999Z,13.40
2019-03-03T00:15:57.471Z,13.40
2019-03-03T00:18:24.854Z,13.30
2019-03-03T00:20:54.251Z,13.40
2019-03-03T00:23:21.840Z,13.40
2019-03-03T00:25:49.437Z,13.30
2019-03-03T00:28:16.893Z,13.30
2019-03-03T00:30:44.385Z,13.30
2019-03-03T00:33:11.813Z,13.30
2019-03-03T00:35:39.152Z,13.30
2019-03-03T00:38:29.772Z,13.20
2019-03-03T00:41:31.513Z,15.20
2019-03-03T00:44:14.357Z,13.30
2019-03-03T00:47:07.161Z,13.50
2019-03-03T00:49:53.381Z,13.20
2019-03-03T00:52:26.281Z,13.20
2019-03-03T00:55:25.426Z,13.10
2019-03-03T00:58:10.939Z,13.20
2019-03-03T01:01:00.921Z,13.10
2019-03-03T01:03:33.005Z,13.10
2019-03-03T01:06:23.149Z,13.10
2019-03-03T01:09:10.104Z,13.20
2019-03-03T01:11:52.655Z,13.10
2019-03-03T01:14:39.608Z,13.10
2019-03-03T01:17:14.917Z,13.20
2019-03-03T01:20:17.062Z,13.20
2019-03-03T01:22:56.214Z,13.20
2019-03-03T01:25:23.676Z,13.20
2019-03-03T01:27:51.064Z,13.20
2019-03-03T01:30:18.504Z,13.20
2019-03-03T01:32:45.901Z,13.20
2019-03-03T01:35:13.271Z,13.30
2019-03-03T01:37:40.751Z,13.30
2019-03-03T01:40:08.404Z,13.30
2019-03-03T01:45:03.764Z,13.30
2019-03-03T01:47:31.016Z,13.30
2019-03-03T01:49:58.367Z,13.30
2019-03-03T01:52:25.762Z,13.30
2019-03-03T01:54:53.087Z,14.90
2019-03-03T01:57:20.497Z,13.40
2019-03-03T01:59:47.878Z,14.30
2019-03-03T02:02:15.674Z,13.40
2019-03-03T02:04:42.988Z,13.30
2019-03-03T02:07:10.236Z,16.20
2019-03-03T02:09:37.715Z,13.40
2019-03-03T02:12:05.279Z,13.30
2019-03-03T02:14:32.669Z,13.40
2019-03-03T02:17:00.020Z,13.40
2019-03-03T02:19:27.406Z,13.40
2019-03-03T02:21:54.769Z,13.70
2019-03-03T02:24:22.123Z,13.30
2019-03-03T02:26:49.565Z,13.30
2019-03-03T02:29:17.042Z,13.90
2019-03-03T02:31:44.452Z,13.40
2019-03-03T02:34:11.857Z,13.30
2019-03-03T02:36:39.208Z,13.30
2019-03-03T02:39:15.376Z,13.40
2019-03-03T02:41:42.758Z,13.40
2019-03-03T02:44:10.090Z,13.40
2019-03-03T02:46:37.506Z,13.40
2019-03-03T02:49:05.039Z,13.40
2019-03-03T02:51:32.364Z,13.40
2019-03-03T02:53:59.702Z,13.40
2019-03-03T02:56:27.045Z,13.40
2019-03-03T02:58:54.368Z,13.40
2019-03-03T03:01:26.440Z,13.40
2019-03-03T03:03:54.026Z,15.10
2019-03-03T03:06:39.196Z,13.50
2019-03-03T03:09:12.584Z,13.40
2019-03-03T03:11:59.465Z,13.40
2019-03-03T03:14:46.421Z,13.40
2019-03-03T03:17:45.485Z,13.40
2019-03-03T03:20:29.490Z,13.40
2019-03-03T03:23:05.335Z,13.40
2019-03-03T03:26:04.481Z,13.40
2019-03-03T03:28:47.655Z,13.40
2019-03-03T03:31:40.484Z,13.40
2019-03-03T03:34:18.024Z,13.40
2019-03-03T03:37:22.908Z,13.40
2019-03-03T03:40:08.294Z,13.40
2019-03-03T03:42:48.284Z,13.40
2019-03-03T03:45:24.847Z,13.40
2019-03-03T03:48:09.370Z,15.80
2019-03-03T03:50:56.046Z,13.40
2019-03-03T03:53:29.599Z,13.30
2019-03-03T03:56:12.443Z,13.30
2019-03-03T03:58:48.170Z,13.30
2019-03-03T04:01:22.333Z,13.30
2019-03-03T04:04:17.314Z,13.30
2019-03-03T04:07:04.497Z,13.30
2019-03-03T04:10:00.596Z,14.40
2019-03-03T04:12:59.697Z,13.40
2019-03-03T04:15:45.093Z,13.30
2019-03-03T04:18:17.771Z,13.40
2019-03-03T04:20:59.164Z,13.40
2019-03-03T04:23:44.696Z,13.60
2019-03-03T04:26:31.568Z,13.40
2019-03-03T04:29:04.707Z,13.40
2019-03-03T04:31:43.251Z,10.60
2019-03-03T04:34:17.530Z,13.40
2019-03-03T04:37:22.706Z,13.40
2019-03-03T04:40:21.482Z,13.40
2019-03-03T04:43:12.834Z,13.40
2019-03-03T04:46:05.519Z,13.40
2019-03-03T04:48:39.890Z,13.40
2019-03-03T04:51:21.984Z,13.40
2019-03-03T04:54:08.996Z,13.40
2019-03-03T04:56:48.338Z,13.40
2019-03-03T04:59:24.288Z,13.40
2019-03-03T05:02:11.128Z,15.40
2019-03-03T05:04:46.422Z,13.40
2019-03-03T05:07:19.963Z,13.40
2019-03-03T05:09:59.083Z,13.40
2019-03-03T05:12:55.031Z,13.50
2019-03-03T05:15:47.789Z,13.50
2019-03-03T05:18:20.402Z,13.40
2019-03-03T05:20:49.718Z,13.40
2019-03-03T05:23:17.024Z,13.40
2019-03-03T05:25:44.363Z,13.30
2019-03-03T05:28:13.531Z,13.30
2019-03-03T05:30:44.861Z,13.30
2019-03-03T05:33:34.815Z,13.30
2019-03-03T05:36:03.223Z,13.30
2019-03-03T05:38:30.733Z,13.40
2019-03-03T05:40:58.366Z,13.30
2019-03-03T05:43:26.177Z,13.30
2019-03-03T05:45:56.644Z,13.30
2019-03-03T05:48:28.438Z,10.90
2019-03-03T05:50:55.853Z,13.30
2019-03-03T05:53:23.354Z,13.30
2019-03-03T05:55:50.684Z,13.70
2019-03-03T05:58:17.981Z,13.40
2019-03-03T06:00:55.222Z,13.40
2019-03-03T06:03:22.517Z,13.40
2019-03-03T06:06:16.743Z,13.40
2019-03-03T06:08:45.296Z,13.40
2019-03-03T06:11:12.613Z,13.40
2019-03-03T06:13:40.061Z,13.40
2019-03-03T06:16:07.479Z,13.40
2019-03-03T06:18:34.744Z,13.40
2019-03-03T06:21:02.163Z,13.40
2019-03-03T06:23:29.599Z,13.30
2019-03-03T06:25:56.909Z,13.30
2019-03-03T06:28:24.849Z,13.40
2019-03-03T06:30:52.257Z,13.30
2019-03-03T06:33:19.783Z,13.40
2019-03-03T06:35:47.377Z,13.40
2019-03-03T06:38:15.072Z,13.40
2019-03-03T06:40:42.581Z,13.40
2019-03-03T06:43:09.993Z,13.40
2019-03-03T06:45:37.564Z,16.80
2019-03-03T06:48:05.134Z,13.40
2019-03-03T06:50:32.615Z,13.30
2019-03-03T06:52:59.986Z,13.30
2019-03-03T06:55:27.641Z,13.30
2019-03-03T06:57:55.133Z,13.30
2019-03-03T07:00:23.022Z,13.40
2019-03-03T07:02:50.508Z,14.10
2019-03-03T07:05:17.974Z,13.40
2019-03-03T07:10:46.732Z,13.40
2019-03-03T07:13:14.098Z,13.70
2019-03-03T07:15:41.470Z,13.40
2019-03-03T07:18:08.894Z,13.40
2019-03-03T07:20:36.296Z,13.40
2019-03-03T07:23:03.633Z,14.90
2019-03-03T07:25:31.084Z,13.50
2019-03-03T07:27:58.388Z,14.20
2019-03-03T07:30:25.768Z,13.50
2019-03-03T07:33:13.181Z,12.20
2019-03-03T07:35:40.684Z,13.60
2019-03-03T07:38:08.150Z,10.20
2019-03-03T07:40:37.825Z,13.60
2019-03-03T07:43:05.315Z,13.70
2019-03-03T07:45:32.758Z,13.60
2019-03-03T07:48:01.528Z,13.70
2019-03-03T07:50:28.878Z,15.00
2019-03-03T07:52:56.327Z,13.80
2019-03-03T07:55:23.676Z,13.40
2019-03-03T07:57:53.229Z,13.80
2019-03-03T08:00:40.765Z,14.00
2019-03-03T08:03:08.188Z,14.00
2019-03-03T08:05:35.650Z,14.60
2019-03-03T08:08:02.992Z,14.30
2019-03-03T08:10:30.476Z,14.20
2019-03-03T08:12:57.968Z,14.30
2019-03-03T08:15:25.404Z,14.30
2019-03-03T08:17:52.898Z,14.80
2019-03-03T08:20:20.537Z,14.50
2019-03-03T08:22:57.103Z,14.60
2019-03-03T08:25:24.436Z,14.70
2019-03-03T08:27:51.867Z,14.90
2019-03-03T08:30:19.655Z,17.70
2019-03-03T08:32:47.325Z,15.10
2019-03-03T08:35:16.918Z,19.60
2019-03-03T08:37:44.359Z,15.20
2019-03-03T08:40:12.129Z,15.40
2019-03-03T08:42:57.741Z,15.50
2019-03-03T08:53:31.957Z,13.00
2019-03-03T08:59:00.710Z,16.70
2019-03-03T09:02:05.758Z,16.90
2019-03-03T09:05:05.103Z,17.20
2019-03-03T09:07:54.833Z,17.50
2019-03-03T09:10:44.741Z,17.70
2019-03-03T09:13:34.767Z,17.90
2019-03-03T09:16:30.870Z,18.00
2019-03-03T09:19:17.612Z,18.10
2019-03-03T09:22:10.473Z,18.30
2019-03-03T09:24:52.249Z,18.70
2019-03-03T09:27:57.565Z,19.00
2019-03-03T09:30:58.675Z,19.30
2019-03-03T09:33:44.597Z,19.70
2019-03-03T09:36:21.536Z,20.10
2019-03-03T09:39:05.595Z,20.40
2019-03-03T09:41:50.032Z,20.60
2019-03-03T09:44:48.824Z,21.00
2019-03-03T09:47:41.639Z,21.30
2019-03-03T09:50:27.747Z,21.60
2019-03-03T09:53:13.257Z,21.90
2019-03-03T09:56:12.058Z,22.30
2019-03-03T09:58:57.555Z,22.60
2019-03-03T10:01:41.629Z,22.90
2019-03-03T10:04:31.615Z,23.30
2019-03-03T10:07:14.949Z,23.50
2019-03-03T10:09:52.167Z,23.80
2019-03-03T10:12:26.849Z,24.10
2019-03-03T10:15:07.281Z,24.20
2019-03-03T10:17:50.195Z,24.60
2019-03-03T10:20:43.501Z,24.80
2019-03-03T10:23:45.514Z,25.00
2019-03-03T10:26:35.005Z,25.20
2019-03-03T10:29:20.536Z,25.30
2019-03-03T10:32:06.320Z,25.40
2019-03-03T10:34:54.524Z,25.60
2019-03-03T10:37:41.834Z,25.70
2019-03-03T10:40:23.307Z,25.90
2019-03-03T10:43:10.563Z,26.00
2019-03-03T10:45:49.094Z,26.20
2019-03-03T10:48:36.148Z,26.40
2019-03-03T10:51:17.593Z,26.60
2019-03-03T10:54:01.840Z,26.70
2019-03-03T10:56:57.932Z,26.90
2019-03-03T10:59:35.764Z,27.10
2019-03-03T11:02:25.513Z,27.30
2019-03-03T11:05:09.963Z,27.40
2019-03-03T11:07:55.618Z,27.60
2019-03-03T11:10:57.381Z,27.70
2019-03-03T11:13:36.057Z,27.70
2019-03-03T11:16:23.211Z,27.70
2019-03-03T11:18:58.713Z,27.30
2019-03-03T11:21:49.530Z,27.60
2019-03-03T11:24:33.275Z,27.60
2019-03-03T11:27:15.502Z,27.60
2019-03-03T11:30:08.663Z,27.60
2019-03-03T11:32:52.080Z,27.40
2019-03-03T11:35:27.425Z,26.60
2019-03-03T11:38:01.590Z,27.00
2019-03-03T11:40:40.952Z,26.90
2019-03-03T11:43:22.857Z,26.70
2019-03-03T11:46:12.959Z,26.40
2019-03-03T11:49:02.858Z,26.10
2019-03-03T11:51:48.637Z,25.90
2019-03-03T11:54:27.319Z,25.60
2019-03-03T11:57:07.411Z,25.50
2019-03-03T11:59:52.584Z,25.30
2019-03-03T12:02:39.579Z,25.40
2019-03-03T12:05:36.723Z,25.40
2019-03-03T12:08:17.693Z,25.40
2019-03-03T12:11:19.713Z,25.40
2019-03-03T12:14:00.199Z,25.30
2019-03-03T12:16:50.155Z,25.30
2019-03-03T12:19:31.364Z,25.40
2019-03-03T12:22:17.153Z,25.40
2019-03-03T12:24:53.211Z,25.50
2019-03-03T12:27:38.932Z,25.60
2019-03-03T12:30:39.094Z,25.70
2019-03-03T12:33:24.759Z,25.90
2019-03-03T12:36:00.488Z,26.00
2019-03-03T12:38:43.759Z,26.00
2019-03-03T12:41:20.854Z,26.00
2019-03-03T12:44:14.888Z,25.90
2019-03-03T12:46:49.705Z,25.80
2019-03-03T12:49:27.607Z,25.60
2019-03-03T12:52:20.931Z,25.50
2019-03-03T12:54:59.420Z,25.40
2019-03-03T12:57:52.653Z,25.40
2019-03-03T13:00:48.497Z,25.50
2019-03-03T13:03:34.507Z,25.70
2019-03-03T13:06:24.472Z,25.90
2019-03-03T13:09:14.150Z,26.10
2019-03-03T13:12:07.040Z,26.30
2019-03-03T13:14:54.552Z,26.20
2019-03-03T13:17:29.071Z,26.20
2019-03-03T13:20:24.971Z,26.10
2019-03-03T13:23:15.694Z,25.90
2019-03-03T13:26:05.491Z,25.50
2019-03-03T13:28:51.240Z,25.40
2019-03-03T13:31:27.749Z,25.10
2019-03-03T13:34:13.675Z,25.50
2019-03-03T13:36:50.078Z,24.80
2019-03-03T13:39:35.596Z,24.70
2019-03-03T13:42:27.791Z,24.60
2019-03-03T13:44:55.367Z,24.50
2019-03-03T13:47:22.721Z,24.40
2019-03-03T13:49:55.379Z,24.40
2019-03-03T13:52:31.383Z,24.40
2019-03-03T13:54:58.885Z,24.40
2019-03-03T13:57:27.344Z,24.50
2019-03-03T13:59:54.915Z,24.60
2019-03-03T14:02:22.839Z,21.50
2019-03-03T14:04:50.369Z,24.90
2019-03-03T14:07:17.825Z,25.00
2019-03-03T14:09:47.646Z,25.00
2019-03-03T14:12:16.177Z,25.00
2019-03-03T14:14:44.682Z,24.80
2019-03-03T14:17:12.142Z,24.60
2019-03-03T14:19:39.736Z,24.40
2019-03-03T14:22:07.312Z,24.20
2019-03-03T14:24:34.722Z,24.00
2019-03-03T14:27:10.348Z,23.70
2019-03-03T14:29:34.888Z,23.40
2019-03-03T14:32:03.089Z,20.80
2019-03-03T14:34:38.554Z,22.90
2019-03-03T14:37:06.828Z,22.90
2019-03-03T14:39:37.100Z,22.60
2019-03-03T14:42:04.903Z,22.50
2019-03-03T14:44:32.450Z,22.10
2019-03-03T14:46:59.954Z,21.90
2019-03-03T14:49:27.531Z,21.70
2019-03-03T14:51:55.056Z,21.60
2019-03-03T14:57:12.876Z,19.10
2019-03-03T14:59:40.365Z,21.00
2019-03-03T15:02:07.843Z,20.90
2019-03-03T15:04:35.289Z,20.80
2019-03-03T15:07:02.978Z,20.60
2019-03-03T15:09:30.352Z,20.50
2019-03-03T15:11:57.772Z,20.50
2019-03-03T15:14:25.164Z,20.40
2019-03-03T15:16:52.603Z,20.30
2019-03-03T15:19:19.877Z,20.20
2019-03-03T15:21:47.490Z,20.20
2019-03-03T15:24:15.005Z,20.10
2019-03-03T15:26:42.463Z,20.00
2019-03-03T15:29:09.951Z,19.90
2019-03-03T15:31:38.091Z,23.10
2019-03-03T15:34:05.696Z,19.80
2019-03-03T15:36:37.489Z,19.80
2019-03-03T15:39:07.087Z,19.70
2019-03-03T15:41:36.429Z,19.70
2019-03-03T15:44:31.626Z,19.60
2019-03-03T15:46:59.159Z,18.40
2019-03-03T15:49:26.566Z,15.90
2019-03-03T15:51:54.075Z,19.50
2019-03-03T15:54:21.523Z,19.60
2019-03-03T15:56:49.067Z,19.50
2019-03-03T15:59:16.606Z,19.50
2019-03-03T16:01:44.277Z,19.00
2019-03-03T16:04:11.950Z,19.40
2019-03-03T16:06:39.630Z,21.10
2019-03-03T16:09:09.939Z,19.30
2019-03-03T16:11:37.560Z,19.20
2019-03-03T16:14:05.093Z,19.20
2019-03-03T16:16:32.631Z,19.10
2019-03-03T16:19:00.336Z,19.20
2019-03-03T16:21:28.109Z,19.10
2019-03-03T16:23:55.770Z,19.00
2019-03-03T16:26:23.441Z,19.10
2019-03-03T16:28:50.948Z,19.10
2019-03-03T16:31:21.276Z,19.00
2019-03-03T16:33:48.919Z,19.00
2019-03-03T16:36:16.304Z,18.90
2019-03-03T16:38:43.772Z,18.90
2019-03-03T16:41:11.408Z,18.90
2019-03-03T16:43:38.871Z,18.80
2019-03-03T16:46:06.428Z,16.90
2019-03-03T16:48:33.786Z,18.80
2019-03-03T16:51:02.069Z,21.00
2019-03-03T16:53:29.544Z,18.70
2019-03-03T16:55:58.392Z,18.60
2019-03-03T16:58:27.984Z,18.70
2019-03-03T17:00:55.534Z,18.60
2019-03-03T17:03:48.021Z,17.30
2019-03-03T17:06:15.564Z,18.50
2019-03-03T17:08:43.033Z,18.40
2019-03-03T17:11:10.625Z,18.50
2019-03-03T17:13:41.615Z,18.50
2019-03-03T17:16:28.650Z,18.50
2019-03-03T17:18:56.274Z,18.70
2019-03-03T17:21:23.632Z,18.40
2019-03-03T17:23:54.511Z,15.20
2019-03-03T17:26:21.917Z,18.40
2019-03-03T17:28:50.663Z,18.30
2019-03-03T17:31:18.189Z,18.30
2019-03-03T17:33:45.919Z,18.30
2019-03-03T17:36:14.064Z,18.20
2019-03-03T17:38:43.564Z,18.30
2019-03-03T17:41:11.203Z,18.20
2019-03-03T17:43:38.747Z,18.30
2019-03-03T17:46:06.219Z,18.20
2019-03-03T17:48:34.019Z,18.30
2019-03-03T17:51:07.317Z,18.20
2019-03-03T17:53:35.224Z,20.70
2019-03-03T17:56:03.454Z,18.10
2019-03-03T17:58:31.229Z,18.20
2019-03-03T18:01:02.506Z,21.60
2019-03-03T18:03:31.152Z,18.10
2019-03-03T18:06:01.502Z,18.20
2019-03-03T18:08:31.519Z,14.70
2019-03-03T18:10:58.951Z,18.20
2019-03-03T18:13:26.487Z,18.10
2019-03-03T18:16:01.982Z,17.90
2019-03-03T18:18:33.750Z,18.30
2019-03-03T18:21:03.829Z,19.60
2019-03-03T18:23:31.217Z,17.70
2019-03-03T18:26:20.185Z,17.90
2019-03-03T18:28:51.602Z,17.90
2019-03-03T18:31:19.149Z,16.60
2019-03-03T18:33:47.449Z,17.80
2019-03-03T18:36:15.045Z,17.90
2019-03-03T18:38:55.308Z,17.90
2019-03-03T18:41:25.000Z,17.90
2019-03-03T18:43:52.433Z,17.80
2019-03-03T18:46:32.233Z,17.80
2019-03-03T18:48:57.186Z,14.60
2019-03-03T18:51:24.986Z,18.00
2019-03-03T18:53:55.438Z,17.80
2019-03-03T18:56:26.193Z,17.70
2019-03-03T19:06:01.839Z,17.80
2019-03-03T19:12:38.668Z,14.60
2019-03-03T19:15:10.441Z,20.10
2019-03-03T19:20:33.252Z,17.80
2019-03-03T19:23:32.674Z,17.70
2019-03-03T19:26:19.697Z,17.70
2019-03-03T19:28:49.219Z,17.80
2019-03-03T19:35:02.855Z,15.60
2019-03-03T19:37:39.706Z,17.70
2019-03-03T19:40:16.372Z,17.80
2019-03-03T19:43:08.467Z,16.00
2019-03-03T19:45:38.339Z,17.80
2019-03-03T19:51:20.853Z,17.70
2019-03-03T19:53:48.251Z,16.60
2019-03-03T19:56:15.772Z,17.70
2019-03-03T19:58:43.430Z,17.60
2019-03-03T20:01:11.009Z,19.90
2019-03-03T20:03:38.594Z,17.60
2019-03-03T20:06:06.128Z,17.60
2019-03-03T20:08:33.483Z,17.50
2019-03-03T20:11:28.773Z,19.60
2019-03-03T20:13:56.240Z,17.50
2019-03-03T20:19:41.812Z,14.40
2019-03-03T20:23:57.558Z,17.40
2019-03-03T20:26:25.518Z,17.40
2019-03-03T20:28:55.988Z,17.40
2019-03-03T20:31:23.691Z,17.30
2019-03-03T20:33:51.334Z,17.20
2019-03-03T20:36:18.779Z,17.20
2019-03-03T20:38:49.246Z,17.20
2019-03-03T20:41:16.768Z,18.50
2019-03-03T20:43:44.304Z,17.10
2019-03-03T20:46:14.405Z,17.00
2019-03-03T20:48:45.243Z,17.00
2019-03-03T20:51:12.703Z,17.00
2019-03-03T20:53:40.594Z,17.00
2019-03-03T20:56:08.313Z,17.00
2019-03-03T20:58:35.901Z,17.00
2019-03-03T21:01:03.412Z,17.00
2019-03-03T21:03:30.992Z,17.00
2019-03-03T21:05:58.586Z,17.00
2019-03-03T21:08:26.212Z,17.00
2019-03-03T21:10:54.139Z,14.60
2019-03-03T21:13:24.633Z,17.00
2019-03-03T21:15:52.202Z,16.90
2019-03-03T21:18:19.725Z,16.90
2019-03-03T21:20:47.213Z,16.90
2019-03-03T21:23:14.659Z,17.00
2019-03-03T21:25:42.094Z,16.90
2019-03-03T21:28:09.997Z,15.50
2019-03-03T21:30:37.533Z,16.90
2019-03-03T21:33:05.077Z,16.90
2019-03-03T21:35:32.505Z,17.00
2019-03-03T21:37:59.993Z,16.90
2019-03-03T21:42:57.774Z,16.90
2019-03-03T21:45:25.226Z,17.00
2019-03-03T21:47:53.319Z,17.00
2019-03-03T21:50:21.056Z,16.90
2019-03-03T21:52:48.481Z,17.00
2019-03-03T21:55:15.994Z,17.00
2019-03-03T21:57:43.331Z,16.90
2019-03-03T22:00:32.377Z,16.90
2019-03-03T22:03:00.092Z,16.90
2019-03-03T22:05:27.866Z,16.80
2019-03-03T22:07:55.554Z,16.80
2019-03-03T22:10:32.636Z,16.70
2019-03-03T22:13:05.043Z,16.60
2019-03-03T22:15:32.574Z,16.60
2019-03-03T22:18:00.011Z,16.50
2019-03-03T22:20:27.650Z,16.40
2019-03-03T22:22:55.117Z,16.40
2019-03-03T22:25:22.502Z,16.40
2019-03-03T22:27:50.369Z,16.40
2019-03-03T22:30:18.095Z,16.40
2019-03-03T22:32:46.335Z,16.40
2019-03-03T22:35:13.863Z,16.30
2019-03-03T22:37:41.422Z,16.40
2019-03-03T22:40:10.475Z,16.40
2019-03-03T22:42:38.489Z,16.30
2019-03-03T22:45:07.258Z,16.30
2019-03-03T22:47:34.886Z,16.40
2019-03-03T22:50:02.489Z,16.30
2019-03-03T22:52:29.999Z,16.30
2019-03-03T22:54:57.586Z,16.30
2019-03-03T22:57:24.960Z,16.30
2019-03-03T23:02:21.302Z,16.30
2019-03-03T23:04:54.194Z,16.20
2019-03-03T23:07:43.437Z,18.30
2019-03-03T23:10:55.418Z,17.40
2019-03-03T23:14:09.140Z,16.20
2019-03-03T23:17:24.697Z,16.20
2019-03-03T23:20:49.094Z,16.20
2019-03-03T23:24:03.017Z,16.20
2019-03-03T23:26:30.764Z,16.10
2019-03-03T23:28:58.144Z,15.30
2019-03-03T23:31:25.614Z,16.10
2019-03-03T23:33:52.854Z,16.00
2019-03-03T23:36:20.338Z,16.10
2019-03-03T23:38:47.792Z,16.10
2019-03-03T23:41:15.234Z,16.00
2019-03-03T23:43:42.795Z,16.00
2019-03-03T23:46:10.130Z,16.00
2019-03-03T23:48:37.506Z,16.40
2019-03-03T23:51:04.985Z,16.10
2019-03-03T23:53:32.398Z,16.30
2019-03-03T23:55:59.766Z,16.10
2019-03-03T23:58:27.274Z,16.10
